Thursday, July 31, 2014, 7:26 AM EDT

KPTW, Pottstown Limerick Airport

Location: Royersford, PA, United States Lat: 40.233
Local Time: 7:26 AM EDT (11:26 GMT) Lon: -75.55
Time Zone: US/Eastern Elev: 291 ft

Show me the last for .
Show Decoded

2014-07-31 06:54 METAR KPTW 311054Z AUTO 00000KT 10SM FEW075 BKN100 16/14 A3011 RMK AO2 SLP191
                 T01560139 =
2014-07-31 05:54 METAR KPTW 310954Z AUTO 00000KT 10SM SCT120 16/13 A3009 RMK AO2 SLP186 T01610133
                 =
2014-07-31 04:54 METAR KPTW 310854Z AUTO 00000KT 10SM SCT065 BKN080 15/13 A3008 RMK AO2 SLP181
                 T01500133 55001 =
2014-07-31 02:54 METAR KPTW 310654Z AUTO 00000KT 10SM CLR 14/13 A3008 RMK AO2 SLP181 T01440133 =
2014-07-31 01:54 METAR KPTW 310554Z AUTO 00000KT 10SM CLR 15/13 A3008 RMK AO2 SLP182 T01500133
                 10222 20150 50002 =
2014-07-31 00:54 METAR KPTW 310454Z AUTO 00000KT 10SM CLR 16/13 A3008 RMK AO2 SLP183 T01560133
                 402440111 =
2014-07-30 23:54 METAR KPTW 310354Z AUTO 00000KT 10SM CLR 16/13 A3008 RMK AO2 SLP182 T01610133 =
2014-07-30 21:54 METAR KPTW 310154Z AUTO 00000KT 10SM CLR 19/13 A3008 RMK AO2 SLP181 T01890133 =
2014-07-30 20:54 METAR KPTW 310054Z AUTO 00000KT 10SM CLR 19/13 A3007 RMK AO2 SLP178 T01890133 =
2014-07-30 18:54 METAR KPTW 302254Z AUTO 19003KT 10SM SCT055 23/12 A3004 RMK AO2 SLP169 T02330117
                 =
2014-07-30 17:54 METAR KPTW 302154Z AUTO VRB03KT 10SM SCT055 24/11 A3004 RMK AO2 SLP167 T02390106
                 =
2014-07-30 16:54 METAR KPTW 302054Z AUTO 26004KT 10SM BKN055 24/12 A3004 RMK AO2 SLP169 T02440117
                 56004 =
2014-07-30 15:54 METAR KPTW 301954Z AUTO 29004KT 10SM FEW055 23/12 A3004 RMK AO2 SLP169 T02330117
                 =
2014-07-30 14:54 METAR KPTW 301854Z AUTO 27004KT 10SM SCT050 BKN065 23/12 A3004 RMK AO2 SLP170
                 T02330122 =
2014-07-30 13:54 METAR KPTW 301754Z AUTO VRB03KT 10SM FEW050 SCT070 23/12 A3005 RMK AO2 SLP173
                 T02280117 10239 20150 58008 =
2014-07-30 12:54 METAR KPTW 301654Z AUTO 23004KT 10SM FEW049 23/13 A3006 RMK AO2 SLP175 T02330128
                 =
2014-07-30 10:54 METAR KPTW 301454Z AUTO 22004KT 10SM CLR 21/12 A3008 RMK AO2 SLP182 T02110122
                 51004 =
2014-07-30 09:54 METAR KPTW 301354Z AUTO 33003KT 10SM CLR 20/13 A3008 RMK AO2 SLP181 T02000128 =
2014-07-30 08:54 METAR KPTW 301254Z AUTO 30003KT 10SM CLR 18/13 A3008 RMK AO2 SLP181 T01780128 =
2014-07-30 07:54 METAR KPTW 301154Z AUTO 00000KT 10SM CLR 15/12 A3007 RMK AO2 SLP177 T01500122
                 10150 20111 51015 =

Support USWX by starting your Amazon purchase here.